sensor_id;sensor_type;location;lat;lon;timestamp;P1;durP1;ratioP1;P2;durP2;ratioP2
69323;SDS011;56470;47.350;8.718;2023-02-01T00:00:00;7.00;;;3.77;;
69323;SDS011;56470;47.350;8.718;2023-02-01T00:02:26;8.27;;;2.87;;
69323;SDS011;56470;47.350;8.718;2023-02-01T00:04:51;4.90;;;2.85;;
69323;SDS011;56470;47.350;8.718;2023-02-01T00:07:16;4.00;;;1.73;;
69323;SDS011;56470;47.350;8.718;2023-02-01T00:09:42;3.70;;;2.13;;
69323;SDS011;56470;47.350;8.718;2023-02-01T00:12:07;2.90;;;1.70;;
69323;SDS011;56470;47.350;8.718;2023-02-01T00:14:32;4.57;;;2.47;;
69323;SDS011;56470;47.350;8.718;2023-02-01T00:17:03;3.20;;;1.50;;
69323;SDS011;56470;47.350;8.718;2023-02-01T00:19:30;4.85;;;2.35;;
69323;SDS011;56470;47.350;8.718;2023-02-01T00:21:55;4.70;;;2.43;;
69323;SDS011;56470;47.350;8.718;2023-02-01T00:24:20;6.07;;;2.80;;
69323;SDS011;56470;47.350;8.718;2023-02-01T00:26:46;6.67;;;2.87;;
69323;SDS011;56470;47.350;8.718;2023-02-01T00:29:13;5.18;;;2.45;;
69323;SDS011;56470;47.350;8.718;2023-02-01T00:31:41;6.83;;;3.97;;
69323;SDS011;56470;47.350;8.718;2023-02-01T00:34:06;6.07;;;3.47;;
69323;SDS011;56470;47.350;8.718;2023-02-01T00:36:33;5.53;;;2.78;;
69323;SDS011;56470;47.350;8.718;2023-02-01T00:38:59;5.63;;;2.93;;
69323;SDS011;56470;47.350;8.718;2023-02-01T00:41:24;4.77;;;2.67;;
69323;SDS011;56470;47.350;8.718;2023-02-01T00:43:50;5.82;;;2.97;;
69323;SDS011;56470;47.350;8.718;2023-02-01T00:46:16;7.33;;;3.87;;
69323;SDS011;56470;47.350;8.718;2023-02-01T00:48:43;5.07;;;2.78;;
69323;SDS011;56470;47.350;8.718;2023-02-01T00:51:10;3.13;;;1.70;;
69323;SDS011;56470;47.350;8.718;2023-02-01T00:53:40;7.45;;;3.35;;
69323;SDS011;56470;47.350;8.718;2023-02-01T00:56:06;8.23;;;3.80;;
69323;SDS011;56470;47.350;8.718;2023-02-01T00:58:32;5.90;;;2.67;;
69323;SDS011;56470;47.350;8.718;2023-02-01T01:01:15;7.95;;;4.18;;
69323;SDS011;56470;47.350;8.718;2023-02-01T01:03:49;7.32;;;3.50;;
69323;SDS011;56470;47.350;8.718;2023-02-01T01:06:16;9.02;;;4.47;;
69323;SDS011;56470;47.350;8.718;2023-02-01T01:08:44;4.87;;;3.17;;
69323;SDS011;56470;47.350;8.718;2023-02-01T01:11:11;6.80;;;3.97;;
69323;SDS011;56470;47.350;8.718;2023-02-01T01:13:38;6.90;;;2.78;;
69323;SDS011;56470;47.350;8.718;2023-02-01T01:16:04;7.50;;;3.87;;
69323;SDS011;56470;47.350;8.718;2023-02-01T01:18:31;10.30;;;3.60;;
69323;SDS011;56470;47.350;8.718;2023-02-01T01:20:57;8.93;;;3.95;;
69323;SDS011;56470;47.350;8.718;2023-02-01T01:23:22;6.50;;;3.03;;
69323;SDS011;56470;47.350;8.718;2023-02-01T01:25:47;6.28;;;3.20;;
69323;SDS011;56470;47.350;8.718;2023-02-01T01:28:16;8.53;;;3.77;;
69323;SDS011;56470;47.350;8.718;2023-02-01T01:30:41;6.73;;;3.23;;
69323;SDS011;56470;47.350;8.718;2023-02-01T01:33:07;7.23;;;3.20;;
69323;SDS011;56470;47.350;8.718;2023-02-01T01:35:33;7.63;;;3.67;;
69323;SDS011;56470;47.350;8.718;2023-02-01T01:37:58;6.97;;;3.83;;
69323;SDS011;56470;47.350;8.718;2023-02-01T01:40:24;8.00;;;4.03;;
69323;SDS011;56470;47.350;8.718;2023-02-01T01:42:51;7.78;;;3.58;;
69323;SDS011;56470;47.350;8.718;2023-02-01T01:45:29;4.43;;;2.03;;
69323;SDS011;56470;47.350;8.718;2023-02-01T01:47:57;7.45;;;3.55;;
69323;SDS011;56470;47.350;8.718;2023-02-01T01:50:36;5.22;;;3.17;;
69323;SDS011;56470;47.350;8.718;2023-02-01T01:53:06;5.50;;;3.28;;
69323;SDS011;56470;47.350;8.718;2023-02-01T01:55:34;6.85;;;3.22;;
69323;SDS011;56470;47.350;8.718;2023-02-01T01:58:03;6.57;;;3.40;;
69323;SDS011;56470;47.350;8.718;2023-02-01T02:00:31;5.75;;;2.90;;
69323;SDS011;56470;47.350;8.718;2023-02-01T02:02:58;7.72;;;3.00;;
69323;SDS011;56470;47.350;8.718;2023-02-01T02:05:28;6.60;;;3.28;;
69323;SDS011;56470;47.350;8.718;2023-02-01T02:07:57;7.00;;;3.28;;
69323;SDS011;56470;47.350;8.718;2023-02-01T02:10:25;7.00;;;3.07;;
69323;SDS011;56470;47.350;8.718;2023-02-01T02:13:11;6.65;;;3.15;;
69323;SDS011;56470;47.350;8.718;2023-02-01T02:15:41;6.60;;;3.00;;
69323;SDS011;56470;47.350;8.718;2023-02-01T02:18:16;5.90;;;3.10;;
69323;SDS011;56470;47.350;8.718;2023-02-01T02:26:31;5.38;;;2.70;;
69323;SDS011;56470;47.350;8.718;2023-02-01T02:32:03;5.00;;;2.83;;
69323;SDS011;56470;47.350;8.718;2023-02-01T02:34:52;7.00;;;3.35;;
69323;SDS011;56470;47.350;8.718;2023-02-01T02:37:32;6.30;;;3.23;;
69323;SDS011;56470;47.350;8.718;2023-02-01T02:40:13;5.90;;;2.65;;
69323;SDS011;56470;47.350;8.718;2023-02-01T02:42:56;5.78;;;3.17;;
69323;SDS011;56470;47.350;8.718;2023-02-01T02:45:53;6.53;;;2.85;;
69323;SDS011;56470;47.350;8.718;2023-02-01T02:48:51;5.07;;;3.08;;
69323;SDS011;56470;47.350;8.718;2023-02-01T02:51:32;7.57;;;3.30;;
69323;SDS011;56470;47.350;8.718;2023-02-01T02:54:22;5.88;;;2.97;;
69323;SDS011;56470;47.350;8.718;2023-02-01T02:57:12;5.93;;;3.22;;
69323;SDS011;56470;47.350;8.718;2023-02-01T02:59:58;6.28;;;3.20;;
69323;SDS011;56470;47.350;8.718;2023-02-01T03:02:45;7.95;;;3.10;;
69323;SDS011;56470;47.350;8.718;2023-02-01T03:05:32;5.13;;;2.50;;
69323;SDS011;56470;47.350;8.718;2023-02-01T03:08:14;6.63;;;3.42;;
69323;SDS011;56470;47.350;8.718;2023-02-01T03:16:26;3.80;;;2.58;;
69323;SDS011;56470;47.350;8.718;2023-02-01T03:19:06;8.20;;;3.53;;
69323;SDS011;56470;47.350;8.718;2023-02-01T03:24:07;5.68;;;3.00;;
69323;SDS011;56470;47.350;8.718;2023-02-01T03:26:37;5.55;;;2.60;;
69323;SDS011;56470;47.350;8.718;2023-02-01T03:29:09;3.88;;;2.25;;
69323;SDS011;56470;47.350;8.718;2023-02-01T03:31:50;6.80;;;3.40;;
69323;SDS011;56470;47.350;8.718;2023-02-01T03:34:15;4.05;;;2.20;;
69323;SDS011;56470;47.350;8.718;2023-02-01T03:37:06;6.63;;;3.20;;
69323;SDS011;56470;47.350;8.718;2023-02-01T03:39:55;8.68;;;3.80;;
69323;SDS011;56470;47.350;8.718;2023-02-01T03:42:30;5.03;;;2.50;;
69323;SDS011;56470;47.350;8.718;2023-02-01T03:45:17;7.22;;;3.13;;
69323;SDS011;56470;47.350;8.718;2023-02-01T03:47:48;5.68;;;2.97;;
69323;SDS011;56470;47.350;8.718;2023-02-01T03:50:17;6.53;;;3.40;;
69323;SDS011;56470;47.350;8.718;2023-02-01T03:52:50;3.25;;;2.28;;
69323;SDS011;56470;47.350;8.718;2023-02-01T03:55:20;5.32;;;2.50;;
69323;SDS011;56470;47.350;8.718;2023-02-01T03:57:55;4.97;;;2.42;;
69323;SDS011;56470;47.350;8.718;2023-02-01T04:00:24;4.88;;;2.60;;
69323;SDS011;56470;47.350;8.718;2023-02-01T04:02:51;4.03;;;2.70;;
69323;SDS011;56470;47.350;8.718;2023-02-01T04:05:20;5.60;;;3.05;;
69323;SDS011;56470;47.350;8.718;2023-02-01T04:07:46;2.67;;;1.80;;
69323;SDS011;56470;47.350;8.718;2023-02-01T04:10:11;3.17;;;1.30;;
69323;SDS011;56470;47.350;8.718;2023-02-01T04:12:37;5.45;;;2.80;;
69323;SDS011;56470;47.350;8.718;2023-02-01T04:15:03;6.57;;;2.75;;
69323;SDS011;56470;47.350;8.718;2023-02-01T04:17:29;7.03;;;3.57;;
69323;SDS011;56470;47.350;8.718;2023-02-01T04:19:55;6.05;;;2.75;;
69323;SDS011;56470;47.350;8.718;2023-02-01T04:22:20;6.63;;;2.87;;
69323;SDS011;56470;47.350;8.718;2023-02-01T04:24:46;7.40;;;3.42;;
69323;SDS011;56470;47.350;8.718;2023-02-01T04:27:11;6.97;;;3.53;;
69323;SDS011;56470;47.350;8.718;2023-02-01T04:29:37;5.93;;;3.43;;
69323;SDS011;56470;47.350;8.718;2023-02-01T04:32:02;3.92;;;2.10;;
69323;SDS011;56470;47.350;8.718;2023-02-01T04:34:28;3.73;;;1.97;;
69323;SDS011;56470;47.350;8.718;2023-02-01T04:36:53;5.53;;;2.40;;
69323;SDS011;56470;47.350;8.718;2023-02-01T04:39:18;5.53;;;3.13;;
69323;SDS011;56470;47.350;8.718;2023-02-01T04:41:44;5.55;;;2.47;;
69323;SDS011;56470;47.350;8.718;2023-02-01T04:44:13;10.53;;;4.47;;
69323;SDS011;56470;47.350;8.718;2023-02-01T04:46:40;7.50;;;3.85;;
69323;SDS011;56470;47.350;8.718;2023-02-01T04:49:06;7.33;;;3.57;;
69323;SDS011;56470;47.350;8.718;2023-02-01T04:51:31;6.10;;;2.60;;
69323;SDS011;56470;47.350;8.718;2023-02-01T04:53:57;6.30;;;3.35;;
69323;SDS011;56470;47.350;8.718;2023-02-01T04:56:23;5.20;;;2.57;;
69323;SDS011;56470;47.350;8.718;2023-02-01T04:58:48;5.68;;;2.58;;
69323;SDS011;56470;47.350;8.718;2023-02-01T05:01:13;7.47;;;3.43;;
69323;SDS011;56470;47.350;8.718;2023-02-01T05:03:38;6.57;;;3.00;;
69323;SDS011;56470;47.350;8.718;2023-02-01T05:06:04;5.57;;;2.50;;
69323;SDS011;56470;47.350;8.718;2023-02-01T05:08:30;5.70;;;3.20;;
69323;SDS011;56470;47.350;8.718;2023-02-01T05:10:56;7.32;;;3.05;;
69323;SDS011;56470;47.350;8.718;2023-02-01T05:13:21;5.10;;;2.90;;
69323;SDS011;56470;47.350;8.718;2023-02-01T05:16:06;7.05;;;3.30;;
69323;SDS011;56470;47.350;8.718;2023-02-01T05:18:31;6.88;;;3.25;;
69323;SDS011;56470;47.350;8.718;2023-02-01T05:20:57;6.87;;;3.43;;
69323;SDS011;56470;47.350;8.718;2023-02-01T05:23:22;6.87;;;3.33;;
69323;SDS011;56470;47.350;8.718;2023-02-01T05:25:47;8.93;;;3.33;;
69323;SDS011;56470;47.350;8.718;2023-02-01T05:28:13;8.80;;;3.55;;
69323;SDS011;56470;47.350;8.718;2023-02-01T05:30:38;6.90;;;3.23;;
69323;SDS011;56470;47.350;8.718;2023-02-01T05:33:03;7.43;;;3.10;;
69323;SDS011;56470;47.350;8.718;2023-02-01T05:35:29;7.53;;;3.20;;
69323;SDS011;56470;47.350;8.718;2023-02-01T05:37:55;7.00;;;2.15;;
69323;SDS011;56470;47.350;8.718;2023-02-01T05:40:20;8.23;;;3.37;;
69323;SDS011;56470;47.350;8.718;2023-02-01T05:42:46;8.50;;;3.67;;
69323;SDS011;56470;47.350;8.718;2023-02-01T05:45:11;8.67;;;3.70;;
69323;SDS011;56470;47.350;8.718;2023-02-01T05:47:37;4.97;;;2.83;;
69323;SDS011;56470;47.350;8.718;2023-02-01T05:50:03;4.97;;;2.40;;
69323;SDS011;56470;47.350;8.718;2023-02-01T05:52:29;7.30;;;3.53;;
69323;SDS011;56470;47.350;8.718;2023-02-01T05:54:54;3.40;;;2.23;;
69323;SDS011;56470;47.350;8.718;2023-02-01T05:57:19;3.07;;;1.80;;
69323;SDS011;56470;47.350;8.718;2023-02-01T05:59:45;5.33;;;2.40;;
69323;SDS011;56470;47.350;8.718;2023-02-01T06:02:13;3.53;;;1.63;;
69323;SDS011;56470;47.350;8.718;2023-02-01T06:04:39;9.90;;;3.67;;
69323;SDS011;56470;47.350;8.718;2023-02-01T06:07:05;3.33;;;2.17;;
69323;SDS011;56470;47.350;8.718;2023-02-01T06:09:32;6.80;;;3.10;;
69323;SDS011;56470;47.350;8.718;2023-02-01T06:11:58;4.70;;;2.03;;
69323;SDS011;56470;47.350;8.718;2023-02-01T06:14:24;7.47;;;3.67;;
69323;SDS011;56470;47.350;8.718;2023-02-01T06:16:49;5.47;;;2.23;;
69323;SDS011;56470;47.350;8.718;2023-02-01T06:19:15;7.28;;;3.08;;
69323;SDS011;56470;47.350;8.718;2023-02-01T06:21:40;3.23;;;1.80;;
69323;SDS011;56470;47.350;8.718;2023-02-01T06:24:06;4.23;;;2.53;;
69323;SDS011;56470;47.350;8.718;2023-02-01T06:26:31;6.23;;;2.57;;
69323;SDS011;56470;47.350;8.718;2023-02-01T06:28:58;4.47;;;2.30;;
69323;SDS011;56470;47.350;8.718;2023-02-01T06:31:23;6.77;;;2.80;;
69323;SDS011;56470;47.350;8.718;2023-02-01T06:33:50;6.10;;;2.80;;
69323;SDS011;56470;47.350;8.718;2023-02-01T06:36:16;4.68;;;2.33;;
69323;SDS011;56470;47.350;8.718;2023-02-01T06:38:43;3.55;;;1.80;;
69323;SDS011;56470;47.350;8.718;2023-02-01T06:41:08;7.83;;;3.30;;
69323;SDS011;56470;47.350;8.718;2023-02-01T06:43:37;5.05;;;2.83;;
69323;SDS011;56470;47.350;8.718;2023-02-01T06:46:04;5.83;;;2.70;;
69323;SDS011;56470;47.350;8.718;2023-02-01T06:48:38;6.60;;;3.20;;
69323;SDS011;56470;47.350;8.718;2023-02-01T06:51:04;4.93;;;1.57;;
69323;SDS011;56470;47.350;8.718;2023-02-01T06:53:30;3.05;;;1.58;;
69323;SDS011;56470;47.350;8.718;2023-02-01T06:55:59;7.00;;;3.33;;
69323;SDS011;56470;47.350;8.718;2023-02-01T06:58:29;3.60;;;2.17;;
69323;SDS011;56470;47.350;8.718;2023-02-01T07:00:58;5.85;;;2.83;;
69323;SDS011;56470;47.350;8.718;2023-02-01T07:03:29;5.40;;;2.97;;
69323;SDS011;56470;47.350;8.718;2023-02-01T07:05:55;9.50;;;4.10;;
69323;SDS011;56470;47.350;8.718;2023-02-01T07:08:23;8.25;;;3.70;;
69323;SDS011;56470;47.350;8.718;2023-02-01T07:10:48;7.00;;;3.30;;
69323;SDS011;56470;47.350;8.718;2023-02-01T07:13:14;9.40;;;3.80;;
69323;SDS011;56470;47.350;8.718;2023-02-01T07:15:39;8.13;;;3.10;;
69323;SDS011;56470;47.350;8.718;2023-02-01T07:18:04;7.67;;;3.23;;
69323;SDS011;56470;47.350;8.718;2023-02-01T07:20:30;2.65;;;1.85;;
69323;SDS011;56470;47.350;8.718;2023-02-01T07:22:55;7.47;;;3.47;;
69323;SDS011;56470;47.350;8.718;2023-02-01T07:25:22;6.93;;;3.20;;
69323;SDS011;56470;47.350;8.718;2023-02-01T07:27:47;7.07;;;3.67;;
69323;SDS011;56470;47.350;8.718;2023-02-01T07:30:13;7.87;;;3.80;;
69323;SDS011;56470;47.350;8.718;2023-02-01T07:32:38;10.87;;;4.10;;
69323;SDS011;56470;47.350;8.718;2023-02-01T07:35:03;7.83;;;3.30;;
69323;SDS011;56470;47.350;8.718;2023-02-01T07:37:29;8.83;;;3.67;;
69323;SDS011;56470;47.350;8.718;2023-02-01T07:39:55;7.53;;;3.30;;
69323;SDS011;56470;47.350;8.718;2023-02-01T07:42:21;7.57;;;3.70;;
69323;SDS011;56470;47.350;8.718;2023-02-01T07:44:46;6.35;;;3.30;;
69323;SDS011;56470;47.350;8.718;2023-02-01T07:47:11;8.40;;;2.77;;
69323;SDS011;56470;47.350;8.718;2023-02-01T07:49:36;5.60;;;2.47;;
69323;SDS011;56470;47.350;8.718;2023-02-01T07:52:02;9.60;;;3.60;;
69323;SDS011;56470;47.350;8.718;2023-02-01T07:54:27;3.27;;;2.07;;
69323;SDS011;56470;47.350;8.718;2023-02-01T07:56:53;8.07;;;3.30;;
69323;SDS011;56470;47.350;8.718;2023-02-01T07:59:19;6.20;;;2.80;;
69323;SDS011;56470;47.350;8.718;2023-02-01T08:01:44;6.70;;;2.90;;
69323;SDS011;56470;47.350;8.718;2023-02-01T08:04:10;6.30;;;3.00;;
69323;SDS011;56470;47.350;8.718;2023-02-01T08:06:37;5.53;;;2.60;;
69323;SDS011;56470;47.350;8.718;2023-02-01T08:09:03;6.72;;;3.28;;
69323;SDS011;56470;47.350;8.718;2023-02-01T08:11:30;6.15;;;2.72;;
69323;SDS011;56470;47.350;8.718;2023-02-01T08:13:56;7.57;;;2.65;;
69323;SDS011;56470;47.350;8.718;2023-02-01T08:16:23;8.17;;;3.17;;
69323;SDS011;56470;47.350;8.718;2023-02-01T08:18:49;6.63;;;2.97;;
69323;SDS011;56470;47.350;8.718;2023-02-01T08:21:15;8.40;;;2.93;;
69323;SDS011;56470;47.350;8.718;2023-02-01T08:23:42;3.90;;;1.92;;
69323;SDS011;56470;47.350;8.718;2023-02-01T08:28:38;5.87;;;2.83;;
69323;SDS011;56470;47.350;8.718;2023-02-01T08:31:09;6.57;;;2.65;;
69323;SDS011;56470;47.350;8.718;2023-02-01T08:33:36;8.88;;;2.97;;
69323;SDS011;56470;47.350;8.718;2023-02-01T08:36:05;5.07;;;2.43;;
69323;SDS011;56470;47.350;8.718;2023-02-01T08:38:32;6.47;;;3.03;;
69323;SDS011;56470;47.350;8.718;2023-02-01T08:40:57;6.87;;;3.00;;
69323;SDS011;56470;47.350;8.718;2023-02-01T08:43:23;8.40;;;4.03;;
69323;SDS011;56470;47.350;8.718;2023-02-01T08:45:53;8.68;;;3.42;;
69323;SDS011;56470;47.350;8.718;2023-02-01T08:48:19;7.87;;;2.73;;
69323;SDS011;56470;47.350;8.718;2023-02-01T08:50:45;6.13;;;2.97;;
69323;SDS011;56470;47.350;8.718;2023-02-01T08:53:10;1.27;;;0.97;;
69323;SDS011;56470;47.350;8.718;2023-02-01T08:55:38;6.57;;;3.00;;
69323;SDS011;56470;47.350;8.718;2023-02-01T08:58:04;6.60;;;3.05;;
69323;SDS011;56470;47.350;8.718;2023-02-01T09:00:29;6.30;;;2.97;;
69323;SDS011;56470;47.350;8.718;2023-02-01T09:02:55;3.93;;;1.97;;
69323;SDS011;56470;47.350;8.718;2023-02-01T09:05:20;2.00;;;1.40;;
69323;SDS011;56470;47.350;8.718;2023-02-01T09:07:47;6.95;;;3.17;;
69323;SDS011;56470;47.350;8.718;2023-02-01T09:10:12;7.77;;;3.57;;
69323;SDS011;56470;47.350;8.718;2023-02-01T09:12:37;10.50;;;2.70;;
69323;SDS011;56470;47.350;8.718;2023-02-01T09:15:03;5.20;;;2.47;;
69323;SDS011;56470;47.350;8.718;2023-02-01T09:17:31;5.43;;;2.63;;
69323;SDS011;56470;47.350;8.718;2023-02-01T09:19:57;9.50;;;3.13;;
69323;SDS011;56470;47.350;8.718;2023-02-01T09:22:22;6.03;;;3.13;;
69323;SDS011;56470;47.350;8.718;2023-02-01T09:24:48;3.73;;;2.50;;
69323;SDS011;56470;47.350;8.718;2023-02-01T09:27:13;3.85;;;1.98;;
69323;SDS011;56470;47.350;8.718;2023-02-01T09:29:38;6.40;;;3.03;;
69323;SDS011;56470;47.350;8.718;2023-02-01T09:32:04;5.03;;;2.43;;
69323;SDS011;56470;47.350;8.718;2023-02-01T09:34:31;5.15;;;2.20;;
69323;SDS011;56470;47.350;8.718;2023-02-01T09:36:57;6.40;;;2.43;;
69323;SDS011;56470;47.350;8.718;2023-02-01T09:39:22;5.00;;;2.43;;
69323;SDS011;56470;47.350;8.718;2023-02-01T09:44:48;4.80;;;2.10;;
69323;SDS011;56470;47.350;8.718;2023-02-01T09:47:18;6.50;;;2.55;;
69323;SDS011;56470;47.350;8.718;2023-02-01T09:49:55;2.35;;;1.80;;
69323;SDS011;56470;47.350;8.718;2023-02-01T09:52:25;5.68;;;2.40;;
69323;SDS011;56470;47.350;8.718;2023-02-01T09:54:58;5.15;;;1.95;;
69323;SDS011;56470;47.350;8.718;2023-02-01T09:57:36;4.67;;;2.10;;
69323;SDS011;56470;47.350;8.718;2023-02-01T10:00:15;4.88;;;2.53;;
69323;SDS011;56470;47.350;8.718;2023-02-01T10:02:50;4.35;;;1.80;;
69323;SDS011;56470;47.350;8.718;2023-02-01T10:05:18;4.28;;;1.98;;
69323;SDS011;56470;47.350;8.718;2023-02-01T10:08:10;4.38;;;2.42;;
69323;SDS011;56470;47.350;8.718;2023-02-01T10:10:40;6.20;;;2.53;;
69323;SDS011;56470;47.350;8.718;2023-02-01T10:13:17;4.38;;;2.13;;
69323;SDS011;56470;47.350;8.718;2023-02-01T10:16:10;5.15;;;2.00;;
69323;SDS011;56470;47.350;8.718;2023-02-01T10:21:34;3.45;;;1.90;;
69323;SDS011;56470;47.350;8.718;2023-02-01T10:26:44;4.68;;;1.80;;
69323;SDS011;56470;47.350;8.718;2023-02-01T10:29:17;2.08;;;1.60;;
69323;SDS011;56470;47.350;8.718;2023-02-01T10:31:44;2.92;;;2.03;;
69323;SDS011;56470;47.350;8.718;2023-02-01T10:34:30;4.03;;;1.70;;
69323;SDS011;56470;47.350;8.718;2023-02-01T10:37:00;4.63;;;2.30;;
69323;SDS011;56470;47.350;8.718;2023-02-01T10:39:32;5.45;;;1.98;;
69323;SDS011;56470;47.350;8.718;2023-02-01T10:41:58;4.83;;;2.00;;
69323;SDS011;56470;47.350;8.718;2023-02-01T10:44:27;3.00;;;1.63;;
69323;SDS011;56470;47.350;8.718;2023-02-01T10:46:55;3.43;;;1.23;;
69323;SDS011;56470;47.350;8.718;2023-02-01T10:49:22;4.25;;;2.17;;
69323;SDS011;56470;47.350;8.718;2023-02-01T10:51:55;2.03;;;1.23;;
69323;SDS011;56470;47.350;8.718;2023-02-01T10:54:43;1.52;;;1.25;;
69323;SDS011;56470;47.350;8.718;2023-02-01T10:57:09;5.23;;;1.53;;
69323;SDS011;56470;47.350;8.718;2023-02-01T10:59:46;1.10;;;0.90;;
69323;SDS011;56470;47.350;8.718;2023-02-01T11:02:33;3.60;;;1.90;;
69323;SDS011;56470;47.350;8.718;2023-02-01T11:05:04;4.25;;;2.38;;
69323;SDS011;56470;47.350;8.718;2023-02-01T11:07:35;4.93;;;2.15;;
69323;SDS011;56470;47.350;8.718;2023-02-01T11:10:01;2.35;;;1.60;;
69323;SDS011;56470;47.350;8.718;2023-02-01T11:12:35;2.40;;;1.65;;
69323;SDS011;56470;47.350;8.718;2023-02-01T11:17:44;3.85;;;2.15;;
69323;SDS011;56470;47.350;8.718;2023-02-01T11:20:18;3.38;;;1.70;;
69323;SDS011;56470;47.350;8.718;2023-02-01T11:22:46;3.90;;;2.15;;
69323;SDS011;56470;47.350;8.718;2023-02-01T11:25:21;3.20;;;1.73;;
69323;SDS011;56470;47.350;8.718;2023-02-01T11:27:48;4.20;;;1.67;;
69323;SDS011;56470;47.350;8.718;2023-02-01T11:30:16;3.72;;;1.98;;
69323;SDS011;56470;47.350;8.718;2023-02-01T11:32:47;3.50;;;2.13;;
69323;SDS011;56470;47.350;8.718;2023-02-01T11:35:16;2.90;;;1.70;;
69323;SDS011;56470;47.350;8.718;2023-02-01T11:37:44;1.83;;;1.13;;
69323;SDS011;56470;47.350;8.718;2023-02-01T11:43:07;6.33;;;2.20;;
69323;SDS011;56470;47.350;8.718;2023-02-01T11:46:00;3.35;;;1.85;;
69323;SDS011;56470;47.350;8.718;2023-02-01T11:48:28;2.03;;;1.25;;
69323;SDS011;56470;47.350;8.718;2023-02-01T11:56:21;4.10;;;2.00;;
69323;SDS011;56470;47.350;8.718;2023-02-01T11:59:02;3.45;;;1.30;;
69323;SDS011;56470;47.350;8.718;2023-02-01T12:07:19;4.50;;;2.47;;
69323;SDS011;56470;47.350;8.718;2023-02-01T12:17:51;2.63;;;1.77;;
69323;SDS011;56470;47.350;8.718;2023-02-01T12:30:52;3.22;;;1.90;;
69323;SDS011;56470;47.350;8.718;2023-02-01T12:38:52;3.75;;;2.22;;
69323;SDS011;56470;47.350;8.718;2023-02-01T12:41:27;3.20;;;2.23;;
69323;SDS011;56470;47.350;8.718;2023-02-01T12:44:00;5.75;;;2.10;;
69323;SDS011;56470;47.350;8.718;2023-02-01T12:46:40;3.45;;;1.92;;
69323;SDS011;56470;47.350;8.718;2023-02-01T12:49:15;4.25;;;2.03;;
69323;SDS011;56470;47.350;8.718;2023-02-01T12:51:43;3.40;;;2.10;;
69323;SDS011;56470;47.350;8.718;2023-02-01T12:57:00;3.78;;;2.20;;
69323;SDS011;56470;47.350;8.718;2023-02-01T12:59:34;3.92;;;2.20;;
69323;SDS011;56470;47.350;8.718;2023-02-01T13:05:04;4.20;;;2.40;;
69323;SDS011;56470;47.350;8.718;2023-02-01T13:07:39;4.47;;;2.20;;
69323;SDS011;56470;47.350;8.718;2023-02-01T13:10:15;4.28;;;2.13;;
69323;SDS011;56470;47.350;8.718;2023-02-01T13:12:57;3.28;;;1.67;;
69323;SDS011;56470;47.350;8.718;2023-02-01T13:15:29;2.50;;;1.58;;
69323;SDS011;56470;47.350;8.718;2023-02-01T13:17:59;5.65;;;1.90;;
69323;SDS011;56470;47.350;8.718;2023-02-01T13:23:02;2.88;;;2.03;;
69323;SDS011;56470;47.350;8.718;2023-02-01T13:25:41;2.45;;;1.30;;
69323;SDS011;56470;47.350;8.718;2023-02-01T13:28:16;2.47;;;1.15;;
69323;SDS011;56470;47.350;8.718;2023-02-01T13:31:07;3.17;;;1.48;;
69323;SDS011;56470;47.350;8.718;2023-02-01T13:33:40;3.40;;;1.87;;
69323;SDS011;56470;47.350;8.718;2023-02-01T13:39:06;3.20;;;1.40;;
69323;SDS011;56470;47.350;8.718;2023-02-01T13:42:01;3.50;;;1.88;;
69323;SDS011;56470;47.350;8.718;2023-02-01T13:44:39;3.35;;;1.60;;
69323;SDS011;56470;47.350;8.718;2023-02-01T13:47:13;5.13;;;1.90;;
69323;SDS011;56470;47.350;8.718;2023-02-01T13:49:46;7.03;;;2.35;;
69323;SDS011;56470;47.350;8.718;2023-02-01T13:52:23;3.93;;;1.67;;
69323;SDS011;56470;47.350;8.718;2023-02-01T13:57:46;2.22;;;1.25;;
69323;SDS011;56470;47.350;8.718;2023-02-01T14:00:37;2.50;;;1.60;;
69323;SDS011;56470;47.350;8.718;2023-02-01T14:03:08;1.67;;;1.20;;
69323;SDS011;56470;47.350;8.718;2023-02-01T14:23:59;2.67;;;1.45;;
69323;SDS011;56470;47.350;8.718;2023-02-01T14:34:18;3.20;;;1.70;;
69323;SDS011;56470;47.350;8.718;2023-02-01T14:36:45;2.17;;;1.57;;
69323;SDS011;56470;47.350;8.718;2023-02-01T14:39:25;4.25;;;1.73;;
69323;SDS011;56470;47.350;8.718;2023-02-01T14:41:54;2.33;;;2.05;;
69323;SDS011;56470;47.350;8.718;2023-02-01T14:44:32;4.72;;;1.25;;
69323;SDS011;56470;47.350;8.718;2023-02-01T14:49:55;3.53;;;1.27;;
69323;SDS011;56470;47.350;8.718;2023-02-01T14:52:44;2.53;;;1.58;;
69323;SDS011;56470;47.350;8.718;2023-02-01T14:55:16;2.17;;;1.30;;
69323;SDS011;56470;47.350;8.718;2023-02-01T14:57:45;4.45;;;1.73;;
69323;SDS011;56470;47.350;8.718;2023-02-01T15:00:21;2.28;;;1.55;;
69323;SDS011;56470;47.350;8.718;2023-02-01T15:02:53;3.20;;;1.57;;
69323;SDS011;56470;47.350;8.718;2023-02-01T15:05:23;2.13;;;1.13;;
69323;SDS011;56470;47.350;8.718;2023-02-01T15:07:52;1.73;;;1.17;;
69323;SDS011;56470;47.350;8.718;2023-02-01T15:10:18;4.40;;;1.58;;
69323;SDS011;56470;47.350;8.718;2023-02-01T15:12:45;3.25;;;1.92;;
69323;SDS011;56470;47.350;8.718;2023-02-01T15:15:17;4.33;;;1.83;;
69323;SDS011;56470;47.350;8.718;2023-02-01T15:17:56;3.65;;;1.70;;
69323;SDS011;56470;47.350;8.718;2023-02-01T15:20:26;6.07;;;1.40;;
69323;SDS011;56470;47.350;8.718;2023-02-01T15:23:03;2.47;;;1.30;;
69323;SDS011;56470;47.350;8.718;2023-02-01T15:25:35;3.58;;;1.27;;
69323;SDS011;56470;47.350;8.718;2023-02-01T15:28:03;2.63;;;1.03;;
69323;SDS011;56470;47.350;8.718;2023-02-01T15:30:31;2.20;;;1.05;;
69323;SDS011;56470;47.350;8.718;2023-02-01T15:43:35;4.90;;;1.42;;
69323;SDS011;56470;47.350;8.718;2023-02-01T15:46:32;4.10;;;1.50;;
69323;SDS011;56470;47.350;8.718;2023-02-01T15:49:00;6.50;;;1.92;;
69323;SDS011;56470;47.350;8.718;2023-02-01T15:51:29;3.00;;;1.58;;
69323;SDS011;56470;47.350;8.718;2023-02-01T15:54:07;1.77;;;0.93;;
69323;SDS011;56470;47.350;8.718;2023-02-01T15:56:38;4.18;;;1.30;;
69323;SDS011;56470;47.350;8.718;2023-02-01T15:59:13;5.22;;;1.83;;
69323;SDS011;56470;47.350;8.718;2023-02-01T16:01:41;3.60;;;1.45;;
69323;SDS011;56470;47.350;8.718;2023-02-01T16:04:14;3.27;;;1.50;;
69323;SDS011;56470;47.350;8.718;2023-02-01T16:06:46;3.25;;;1.83;;
69323;SDS011;56470;47.350;8.718;2023-02-01T16:09:15;3.15;;;1.50;;
69323;SDS011;56470;47.350;8.718;2023-02-01T16:11:51;2.77;;;1.67;;
69323;SDS011;56470;47.350;8.718;2023-02-01T16:14:22;2.53;;;1.50;;
69323;SDS011;56470;47.350;8.718;2023-02-01T16:16:48;4.85;;;2.08;;
69323;SDS011;56470;47.350;8.718;2023-02-01T16:19:14;3.40;;;1.30;;
69323;SDS011;56470;47.350;8.718;2023-02-01T16:21:39;1.87;;;1.30;;
69323;SDS011;56470;47.350;8.718;2023-02-01T16:24:04;4.63;;;1.90;;
69323;SDS011;56470;47.350;8.718;2023-02-01T16:26:31;2.63;;;1.73;;
69323;SDS011;56470;47.350;8.718;2023-02-01T16:28:57;3.10;;;1.38;;
69323;SDS011;56470;47.350;8.718;2023-02-01T16:31:27;2.58;;;1.55;;
69323;SDS011;56470;47.350;8.718;2023-02-01T16:33:55;5.40;;;1.37;;
69323;SDS011;56470;47.350;8.718;2023-02-01T16:36:20;3.25;;;1.58;;
69323;SDS011;56470;47.350;8.718;2023-02-01T16:38:46;5.03;;;1.63;;
69323;SDS011;56470;47.350;8.718;2023-02-01T16:41:14;3.95;;;2.10;;
69323;SDS011;56470;47.350;8.718;2023-02-01T16:43:41;5.47;;;2.05;;
69323;SDS011;56470;47.350;8.718;2023-02-01T16:46:10;3.30;;;1.60;;
69323;SDS011;56470;47.350;8.718;2023-02-01T16:48:40;5.13;;;1.98;;
69323;SDS011;56470;47.350;8.718;2023-02-01T16:51:11;4.55;;;1.73;;
69323;SDS011;56470;47.350;8.718;2023-02-01T16:53:39;2.40;;;1.60;;
69323;SDS011;56470;47.350;8.718;2023-02-01T16:56:09;3.63;;;1.43;;
69323;SDS011;56470;47.350;8.718;2023-02-01T16:58:45;4.85;;;1.80;;
69323;SDS011;56470;47.350;8.718;2023-02-01T17:01:12;5.18;;;1.98;;
69323;SDS011;56470;47.350;8.718;2023-02-01T17:03:40;4.82;;;1.85;;
69323;SDS011;56470;47.350;8.718;2023-02-01T17:06:08;6.63;;;1.60;;